Time;durP1;ratioP1;P1;durP2;ratioP2;P2;SDS_P1;SDS_P2;PMS_P1;PMS_P2;Temp;Humidity;BMP_temperature;BMP_pressure;BME280_temperature;BME280_humidity;BME280_pressure;Samples;Min_cycle;Max_cycle;Signal;HPM_P1;HPM_P2
2022/07/14 00:01:40;;;;;;;3.70;1.17;;;25.10;50.50;24.30;101667.00;;;;5024178;28;20045;-65
2022/07/14 00:04:26;;;;;;;5.25;1.27;;;25.10;50.50;24.30;101675.00;;;;5020458;28;20037;-66
2022/07/14 00:07:12;;;;;;;5.40;1.13;;;25.10;50.50;24.30;101673.00;;;;5021509;28;20037;-65
2022/07/14 00:09:58;;;;;;;3.08;1.00;;;25.10;50.50;24.20;101661.00;;;;5026977;28;20115;-66
2022/07/14 00:12:44;;;;;;;5.75;1.15;;;25.10;50.40;24.20;101672.00;;;;5018443;28;20046;-66
2022/07/14 00:15:31;;;;;;;3.20;1.30;;;25.10;50.40;24.20;101672.00;;;;5025719;28;20036;-66
2022/07/14 00:18:17;;;;;;;4.60;1.43;;;25.10;50.40;24.20;101670.00;;;;5023168;28;20380;-65
2022/07/14 00:21:03;;;;;;;7.70;1.40;;;25.10;50.40;24.20;101670.00;;;;5023245;28;20291;-66
2022/07/14 00:23:49;;;;;;;4.43;1.20;;;25.10;50.40;24.20;101659.00;;;;5023194;28;20045;-65
2022/07/14 00:26:35;;;;;;;5.30;1.25;;;25.00;50.40;24.20;101668.00;;;;5017389;28;20442;-65
2022/07/14 00:29:21;;;;;;;4.75;1.10;;;25.10;50.40;24.20;101674.00;;;;5024255;28;20135;-65
2022/07/14 00:32:08;;;;;;;3.88;1.38;;;25.10;50.40;24.20;101660.00;;;;5026156;28;20045;-66
2022/07/14 00:34:56;;;;;;;4.43;1.30;;;25.10;50.50;24.20;101662.00;;;;5021931;28;20053;-65
2022/07/14 00:37:42;;;;;;;5.80;1.25;;;25.10;50.40;24.20;101662.00;;;;5026728;28;20501;-65
2022/07/14 00:40:28;;;;;;;2.90;1.27;;;25.00;50.30;24.20;101654.00;;;;5016973;28;20052;-66
2022/07/14 00:43:14;;;;;;;3.75;1.13;;;25.00;50.30;24.20;101659.00;;;;5028452;28;20541;-66
2022/07/14 00:46:00;;;;;;;4.75;1.23;;;25.00;50.30;24.20;101652.00;;;;5021003;28;20620;-65
2022/07/14 00:48:47;;;;;;;4.78;1.27;;;25.00;50.30;24.20;101664.00;;;;5024392;28;20054;-65
2022/07/14 00:51:33;;;;;;;4.57;1.10;;;24.90;50.30;24.20;101661.00;;;;5023662;28;20180;-65
2022/07/14 00:54:26;;;;;;;4.55;1.20;;;25.00;50.40;24.20;101660.00;;;;5024174;28;20037;-65
2022/07/14 00:57:12;;;;;;;5.38;1.10;;;25.00;50.30;24.10;101664.00;;;;5026883;28;20399;-65
2022/07/14 00:59:58;;;;;;;4.88;1.05;;;25.00;50.30;24.10;101663.00;;;;5025388;28;20033;-65
2022/07/14 01:02:45;;;;;;;3.58;1.20;;;25.00;50.40;24.10;101660.00;;;;5021825;28;20045;-66
2022/07/14 01:05:31;;;;;;;3.67;1.20;;;25.00;50.40;24.10;101673.00;;;;5027547;28;20274;-66
2022/07/14 01:08:17;;;;;;;7.07;1.20;;;25.00;50.40;24.10;101666.00;;;;5022369;28;20406;-66
2022/07/14 01:11:07;;;;;;;2.80;0.90;;;25.00;50.40;24.10;101657.00;;;;5031942;28;20045;-65
2022/07/14 01:13:53;;;;;;;5.00;1.10;;;24.90;50.30;24.10;101654.00;;;;5024816;28;20432;-65
2022/07/14 01:16:39;;;;;;;4.50;1.20;;;25.00;50.30;24.10;101662.00;;;;5042090;28;20056;-65
2022/07/14 01:19:25;;;;;;;4.93;1.35;;;24.90;50.30;24.10;101666.00;;;;5031581;28;20120;-65
2022/07/14 01:22:12;;;;;;;4.90;1.02;;;24.90;50.30;24.10;101669.00;;;;5024853;28;20045;-66
2022/07/14 01:24:58;;;;;;;5.28;1.27;;;24.90;50.30;24.10;101662.00;;;;5027729;28;20073;-66
2022/07/14 01:27:44;;;;;;;3.70;0.90;;;24.90;50.30;24.10;101663.00;;;;5010345;28;20046;-66
2022/07/14 01:30:30;;;;;;;9.57;2.53;;;24.90;50.30;24.10;101649.00;;;;5022599;28;20045;-65
2022/07/14 01:33:16;;;;;;;6.40;1.70;;;24.90;50.30;24.10;101659.00;;;;5020717;28;20087;-66
2022/07/14 01:36:03;;;;;;;4.80;1.42;;;24.90;50.30;24.10;101659.00;;;;5015764;28;20505;-66
2022/07/14 01:38:49;;;;;;;5.82;1.70;;;24.90;50.40;24.00;101666.00;;;;5027767;28;20045;-66
2022/07/14 01:41:35;;;;;;;3.88;1.30;;;24.80;50.30;24.00;101670.00;;;;5023800;28;20503;-66
2022/07/14 01:44:21;;;;;;;4.30;1.60;;;24.90;50.40;24.00;101655.00;;;;5026958;28;20086;-65
2022/07/14 01:47:07;;;;;;;5.10;1.55;;;24.90;50.40;24.00;101655.00;;;;5020918;28;20045;-65
2022/07/14 01:49:53;;;;;;;3.22;1.17;;;24.80;50.30;24.00;101667.00;;;;5031459;28;20045;-65
2022/07/14 01:52:39;;;;;;;3.78;1.25;;;24.80;50.20;24.00;101662.00;;;;5021078;28;20103;-66
2022/07/14 01:55:25;;;;;;;4.95;1.30;;;24.80;50.30;24.00;101666.00;;;;5025992;28;20038;-65
2022/07/14 01:58:11;;;;;;;6.32;1.27;;;24.80;50.90;24.00;101668.00;;;;5029151;28;20049;-65
2022/07/14 02:01:39;;;;;;;4.60;1.58;;;24.80;50.20;24.00;101662.00;;;;5025367;28;20454;-65
2022/07/14 02:04:11;;;;;;;4.85;1.50;;;24.80;50.20;24.00;101667.00;;;;5026393;28;20068;-65
2022/07/14 02:06:57;;;;;;;4.40;0.90;;;24.80;50.10;24.00;101653.00;;;;5023780;28;20037;-65
2022/07/14 02:12:48;;;;;;;3.97;1.17;;;24.80;50.10;23.90;101669.00;;;;5021586;28;20064;-65
2022/07/14 02:15:34;;;;;;;6.38;1.27;;;24.80;50.10;23.90;101663.00;;;;5030245;28;20052;-65
2022/07/14 02:18:20;;;;;;;4.55;1.20;;;24.80;50.20;23.90;101666.00;;;;5023325;28;20486;-65
2022/07/14 02:21:06;;;;;;;6.85;1.60;;;24.70;50.10;23.90;101658.00;;;;5031026;28;20052;-65
2022/07/14 02:23:52;;;;;;;5.57;1.10;;;24.70;50.10;23.90;101670.00;;;;5025484;28;20479;-65
2022/07/14 02:26:39;;;;;;;5.85;1.60;;;24.70;50.10;23.90;101671.00;;;;5021319;28;20084;-65
2022/07/14 02:29:25;;;;;;;2.80;0.90;;;24.70;50.20;23.90;101677.00;;;;5028683;28;20582;-65
2022/07/14 02:32:11;;;;;;;5.25;1.13;;;24.70;50.10;23.90;101674.00;;;;5022019;28;20269;-65
2022/07/14 02:34:58;;;;;;;3.92;1.02;;;24.70;50.20;23.90;101667.00;;;;5027547;28;20048;-65
2022/07/14 02:37:44;;;;;;;3.80;1.00;;;24.80;50.20;23.90;101669.00;;;;5023346;28;20065;-65
2022/07/14 02:40:30;;;;;;;4.10;0.90;;;24.60;50.10;23.90;101670.00;;;;5026488;28;20038;-65
2022/07/14 02:43:16;;;;;;;4.70;1.25;;;24.60;50.10;23.90;101663.00;;;;5024986;28;20041;-65
2022/07/14 02:46:02;;;;;;;5.47;1.17;;;24.60;50.10;23.80;101660.00;;;;5022540;28;20045;-65
2022/07/14 02:48:48;;;;;;;3.85;1.30;;;24.60;50.10;23.90;101657.00;;;;5022513;28;20053;-65
2022/07/14 02:51:34;;;;;;;3.15;0.90;;;24.70;50.20;23.90;101649.00;;;;5020295;28;20049;-65
2022/07/14 02:54:20;;;;;;;4.32;1.10;;;24.60;50.20;23.80;101643.00;;;;5020483;28;20073;-65
2022/07/14 02:57:06;;;;;;;6.07;1.52;;;24.60;50.20;23.80;101644.00;;;;5020244;28;20053;-65
2022/07/14 02:59:52;;;;;;;3.08;1.10;;;24.60;50.20;23.80;101650.00;;;;5027443;28;20041;-65
2022/07/14 03:02:39;;;;;;;4.03;0.95;;;24.60;50.20;23.80;101659.00;;;;5015074;28;20591;-65
2022/07/14 03:05:25;;;;;;;3.63;1.20;;;24.60;50.20;23.80;101655.00;;;;5026914;28;20059;-65
2022/07/14 03:08:11;;;;;;;6.40;1.73;;;24.50;50.10;23.80;101650.00;;;;5025059;28;20045;-65
2022/07/14 03:10:57;;;;;;;3.38;0.80;;;24.60;50.10;23.80;101658.00;;;;5022496;28;20072;-65
2022/07/14 03:13:43;;;;;;;2.75;1.00;;;24.60;50.10;23.80;101664.00;;;;5021425;28;20444;-65
2022/07/14 03:16:29;;;;;;;4.93;1.08;;;24.60;50.00;23.80;101675.00;;;;5021569;28;20437;-65
2022/07/14 03:19:15;;;;;;;6.28;1.25;;;24.50;49.90;23.70;101674.00;;;;5031615;28;20060;-65
2022/07/14 03:22:02;;;;;;;5.03;1.25;;;24.60;50.00;23.70;101670.00;;;;5022657;28;20478;-65
2022/07/14 03:24:48;;;;;;;2.95;0.82;;;24.50;50.00;23.70;101671.00;;;;5024457;28;20048;-65
2022/07/14 03:27:38;;;;;;;3.97;1.10;;;24.60;50.10;23.70;101671.00;;;;5025676;28;20051;-65
2022/07/14 03:30:24;;;;;;;3.38;1.13;;;24.50;50.00;23.60;101666.00;;;;5018892;28;20094;-65
2022/07/14 03:33:10;;;;;;;5.82;0.88;;;24.40;50.00;23.60;101663.00;;;;5019864;28;20398;-66
2022/07/14 03:35:56;;;;;;;2.08;0.88;;;24.50;50.00;23.60;101662.00;;;;5025828;28;20557;-65
2022/07/14 03:38:42;;;;;;;5.07;1.13;;;24.50;50.10;23.60;101660.00;;;;5020664;28;20038;-66
2022/07/14 03:41:28;;;;;;;5.65;1.08;;;24.40;50.00;23.60;101665.00;;;;5022669;28;20076;-65
2022/07/14 03:44:14;;;;;;;5.35;2.22;;;24.40;50.00;23.60;101666.00;;;;5027726;28;20049;-65
2022/07/14 03:47:00;;;;;;;2.63;0.80;;;24.40;50.00;23.60;101664.00;;;;5025394;28;20042;-65
2022/07/14 03:49:47;;;;;;;2.85;0.73;;;24.40;50.00;23.60;101674.00;;;;5019649;28;20132;-65
2022/07/14 03:52:33;;;;;;;4.93;1.08;;;24.40;50.00;23.60;101663.00;;;;5024658;28;20049;-65
2022/07/14 03:55:19;;;;;;;2.60;0.80;;;24.30;49.90;23.60;101660.00;;;;5021900;28;20048;-65
2022/07/14 03:58:05;;;;;;;3.13;0.90;;;24.30;49.90;23.60;101661.00;;;;5023823;28;20487;-66
2022/07/14 04:00:51;;;;;;;4.97;0.85;;;24.30;49.90;23.60;101669.00;;;;5018511;28;20049;-65
2022/07/14 04:03:37;;;;;;;4.40;1.00;;;24.30;49.90;23.50;101655.00;;;;5018323;28;20104;-65
2022/07/14 04:06:23;;;;;;;4.28;0.80;;;24.40;50.00;23.50;101670.00;;;;5022153;28;20076;-65
2022/07/14 04:09:09;;;;;;;3.58;1.17;;;24.30;49.90;23.50;101662.00;;;;5024217;28;20076;-65
2022/07/14 04:11:56;;;;;;;5.22;1.02;;;24.40;50.00;23.50;101657.00;;;;5023792;28;20053;-65
2022/07/14 04:14:42;;;;;;;3.15;0.88;;;24.30;49.90;23.50;101658.00;;;;5017561;28;20091;-65
2022/07/14 04:17:28;;;;;;;2.25;0.88;;;24.30;49.90;23.50;101652.00;;;;5016787;28;20037;-65
2022/07/14 04:20:14;;;;;;;2.45;0.98;;;24.30;49.80;23.50;101648.00;;;;5027042;28;20100;-65
2022/07/14 04:23:00;;;;;;;4.32;1.38;;;24.30;49.80;23.50;101645.00;;;;5019137;28;20050;-66
2022/07/14 04:25:47;;;;;;;4.85;1.05;;;24.20;49.80;23.50;101644.00;;;;5024857;28;20466;-65
2022/07/14 04:28:33;;;;;;;;;;;24.30;49.80;23.50;101646.00;;;;5020800;28;20041;-65
2022/07/14 04:31:19;;;;;;;3.22;1.02;;;24.30;49.90;23.50;101648.00;;;;5024522;28;20464;-66
2022/07/14 04:34:05;;;;;;;2.33;1.10;;;24.30;49.70;23.40;101641.00;;;;5020907;28;20033;-65
2022/07/14 04:36:52;;;;;;;2.38;0.90;;;24.20;49.60;23.40;101639.00;;;;5016087;28;20045;-65
2022/07/14 04:39:38;;;;;;;5.50;1.27;;;24.20;49.60;23.40;101651.00;;;;5018096;28;20042;-65
2022/07/14 04:42:24;;;;;;;4.10;0.88;;;24.20;49.60;23.40;101649.00;;;;5020786;28;20438;-65
2022/07/14 04:45:10;;;;;;;3.75;1.23;;;24.20;49.60;23.40;101658.00;;;;5018279;28;20050;-65
2022/07/14 04:47:56;;;;;;;4.03;1.20;;;24.20;49.60;23.40;101651.00;;;;5019950;28;20403;-66
2022/07/14 04:53:46;;;;;;;3.60;1.00;;;24.20;49.60;23.40;101653.00;;;;5017060;28;20050;-65
2022/07/14 04:56:32;;;;;;;2.78;1.20;;;24.20;49.60;23.40;101651.00;;;;5022257;28;20068;-66
2022/07/14 04:59:18;;;;;;;2.63;0.85;;;24.20;49.60;23.40;101656.00;;;;5017897;28;20495;-65
2022/07/14 05:02:04;;;;;;;4.07;1.42;;;24.20;49.60;23.40;101650.00;;;;5015202;28;20104;-65
2022/07/14 05:04:50;;;;;;;3.55;1.05;;;24.20;49.60;23.40;101654.00;;;;5020710;28;20387;-65
2022/07/14 05:07:36;;;;;;;3.75;0.68;;;24.20;49.60;23.40;101653.00;;;;5020399;28;20095;-65
2022/07/14 05:10:23;;;;;;;2.75;1.10;;;24.20;49.60;23.40;101648.00;;;;5029478;28;20048;-65
2022/07/14 05:13:09;;;;;;;6.25;1.20;;;24.10;49.60;23.40;101652.00;;;;5020604;28;20472;-65
2022/07/14 05:15:55;;;;;;;3.60;1.10;;;24.20;49.60;23.40;101648.00;;;;5023311;28;20038;-65
2022/07/14 05:18:41;;;;;;;3.13;1.23;;;24.20;49.60;23.40;101656.00;;;;5026769;28;20120;-66
2022/07/14 05:21:27;;;;;;;2.78;1.10;;;24.20;49.60;23.40;101655.00;;;;5022184;28;20427;-66
2022/07/14 05:24:13;;;;;;;2.67;1.00;;;24.20;49.60;23.40;101653.00;;;;5028455;28;20510;-65
2022/07/14 05:26:59;;;;;;;2.83;0.90;;;24.20;49.60;23.40;101665.00;;;;5025736;28;20045;-65
2022/07/14 05:29:46;;;;;;;3.08;0.98;;;24.20;49.60;23.40;101650.00;;;;5033421;28;20052;-65
2022/07/14 05:32:32;;;;;;;6.93;1.45;;;24.20;49.60;23.40;101650.00;;;;5022546;28;20056;-65
2022/07/14 05:35:18;;;;;;;3.13;0.98;;;24.20;49.60;23.40;101648.00;;;;5031277;28;20437;-66
2022/07/14 05:38:04;;;;;;;3.38;1.10;;;24.20;49.60;23.40;101658.00;;;;5024924;28;20092;-66
2022/07/14 05:40:50;;;;;;;3.05;0.85;;;24.20;49.60;23.40;101661.00;;;;5025329;28;20052;-65
2022/07/14 05:43:37;;;;;;;3.28;0.90;;;24.20;49.60;23.50;101651.00;;;;5020074;28;20471;-65
2022/07/14 05:46:23;;;;;;;3.80;1.40;;;24.30;49.60;23.50;101656.00;;;;5024194;28;20037;-65
2022/07/14 05:49:09;;;;;;;4.18;1.13;;;24.30;49.60;23.40;101661.00;;;;5030047;28;20048;-65
2022/07/14 05:51:55;;;;;;;3.50;1.00;;;24.30;49.60;23.50;101665.00;;;;5016956;28;20053;-65
2022/07/14 05:54:41;;;;;;;4.00;1.17;;;24.30;49.60;23.50;101671.00;;;;5024569;28;20107;-65
2022/07/14 05:57:28;;;;;;;4.25;1.30;;;24.30;49.60;23.50;101664.00;;;;5023573;28;20030;-65
2022/07/14 06:00:15;;;;;;;2.70;1.52;;;24.30;49.60;23.50;101672.00;;;;5026122;28;20375;-65
2022/07/14 06:03:01;;;;;;;2.95;0.80;;;24.30;49.60;23.50;101673.00;;;;5023385;28;20136;-65
2022/07/14 06:05:47;;;;;;;3.92;1.25;;;24.30;49.60;23.50;101671.00;;;;5023206;28;20041;-65
2022/07/14 06:08:33;;;;;;;3.40;1.00;;;24.40;49.70;23.50;101677.00;;;;5022376;28;20086;-65
2022/07/14 06:11:19;;;;;;;3.42;1.05;;;24.30;49.60;23.50;101668.00;;;;5023368;28;20125;-65
2022/07/14 06:14:07;;;;;;;7.75;1.30;;;24.30;49.60;23.50;101675.00;;;;5029075;28;20037;-65
2022/07/14 06:16:53;;;;;;;5.22;1.20;;;24.30;49.60;23.50;101666.00;;;;5021114;28;20475;-65
2022/07/14 06:19:39;;;;;;;2.28;0.60;;;24.30;49.50;23.50;101666.00;;;;5027515;28;20049;-65
2022/07/14 06:22:25;;;;;;;4.70;1.05;;;24.30;49.50;23.50;101663.00;;;;5022482;28;20045;-65
2022/07/14 06:25:11;;;;;;;5.35;1.02;;;24.30;49.50;23.50;101665.00;;;;5025453;28;20593;-65
2022/07/14 06:27:57;;;;;;;4.22;0.98;;;24.40;49.60;23.50;101667.00;;;;5018470;28;20056;-65
2022/07/14 06:30:44;;;;;;;4.25;1.38;;;24.40;49.50;23.50;101666.00;;;;5018903;28;20045;-65
2022/07/14 06:33:30;;;;;;;3.57;1.10;;;24.40;49.50;23.50;101666.00;;;;5025297;28;20037;-65
2022/07/14 06:36:17;;;;;;;4.05;1.35;;;24.40;49.50;23.50;101669.00;;;;5020005;28;20291;-66
2022/07/14 06:39:03;;;;;;;5.72;1.30;;;24.40;49.50;23.50;101660.00;;;;5024223;28;20242;-65
2022/07/14 06:41:49;;;;;;;3.25;1.00;;;24.40;49.50;23.50;101665.00;;;;5022868;28;20037;-65
2022/07/14 06:44:35;;;;;;;3.17;0.93;;;24.40;49.40;23.50;101666.00;;;;5020293;28;20068;-65
2022/07/14 06:47:21;;;;;;;4.00;0.80;;;24.40;49.40;23.50;101666.00;;;;5022010;28;20494;-65
2022/07/14 06:50:08;;;;;;;4.53;0.82;;;24.40;49.40;23.50;101657.00;;;;5023491;28;20049;-65
2022/07/14 06:52:54;;;;;;;5.07;1.23;;;24.40;49.40;23.50;101658.00;;;;5021710;28;20064;-65
2022/07/14 06:55:40;;;;;;;4.13;0.95;;;24.40;49.30;23.50;101668.00;;;;5018108;28;20046;-65
2022/07/14 06:58:26;;;;;;;3.80;1.10;;;24.50;49.40;23.50;101667.00;;;;5025901;28;20103;-65
2022/07/14 07:01:12;;;;;;;2.85;0.70;;;24.50;49.40;23.50;101679.00;;;;5014609;28;20038;-65
2022/07/14 07:03:58;;;;;;;5.57;1.38;;;24.40;49.30;23.50;101682.00;;;;5022712;28;20200;-65
2022/07/14 07:06:44;;;;;;;4.15;0.82;;;24.50;49.40;23.50;101680.00;;;;5023071;28;20401;-65
2022/07/14 07:09:30;;;;;;;2.03;0.73;;;24.50;49.40;23.50;101681.00;;;;5025314;28;20112;-65
2022/07/14 07:12:16;;;;;;;3.70;0.93;;;24.40;49.30;23.60;101679.00;;;;5018174;28;20099;-65
2022/07/14 07:15:04;;;;;;;2.55;0.75;;;24.40;49.30;23.60;101674.00;;;;5021994;28;20044;-65
2022/07/14 07:17:50;;;;;;;5.05;1.20;;;24.50;49.30;23.60;101667.00;;;;5019614;28;20092;-65
2022/07/14 07:20:36;;;;;;;4.40;1.00;;;24.50;49.20;23.60;101667.00;;;;5020672;28;20053;-65
2022/07/14 07:23:22;;;;;;;6.15;1.25;;;24.50;49.10;23.60;101668.00;;;;5026817;28;20049;-65
2022/07/14 07:26:08;;;;;;;2.65;1.00;;;24.50;49.10;23.60;101662.00;;;;5019607;28;20368;-65
2022/07/14 07:28:54;;;;;;;4.80;1.10;;;24.50;49.10;23.60;101650.00;;;;5021165;28;20115;-65
2022/07/14 07:31:40;;;;;;;3.28;0.93;;;24.50;49.10;23.60;101651.00;;;;5015198;28;20530;-65
2022/07/14 07:34:26;;;;;;;4.90;1.25;;;24.50;49.10;23.60;101648.00;;;;5020202;28;20552;-65
2022/07/14 07:37:12;;;;;;;3.58;0.80;;;24.50;49.00;23.60;101635.00;;;;5015813;28;20037;-65
2022/07/14 07:39:59;;;;;;;3.13;0.88;;;24.50;49.00;23.60;101635.00;;;;5022329;28;20104;-65
2022/07/14 07:42:45;;;;;;;3.33;0.90;;;24.50;49.00;23.60;101640.00;;;;5020134;28;20049;-65
2022/07/14 07:45:31;;;;;;;5.95;1.20;;;24.50;48.90;23.60;101640.00;;;;5017034;28;20457;-65
2022/07/14 07:48:17;;;;;;;3.30;0.88;;;24.50;48.90;23.60;101634.00;;;;5022208;28;20068;-67
2022/07/14 07:51:04;;;;;;;3.97;1.13;;;24.50;48.90;23.60;101631.00;;;;5017231;28;20115;-66
2022/07/14 07:53:50;;;;;;;4.85;0.85;;;24.50;48.80;23.60;101642.00;;;;5025492;28;20499;-66
2022/07/14 07:56:36;;;;;;;3.83;0.77;;;24.50;48.80;23.60;101618.00;;;;5016108;28;20049;-65
2022/07/14 07:59:22;;;;;;;3.67;0.82;;;24.50;48.80;23.60;101619.00;;;;5030704;28;20052;-65
2022/07/14 08:02:08;;;;;;;2.95;0.77;;;24.50;49.40;23.60;101624.00;;;;5025243;28;20569;-64
2022/07/14 08:04:54;;;;;;;7.53;0.95;;;24.60;48.70;23.60;101621.00;;;;5016138;28;20103;-65
2022/07/14 08:07:41;;;;;;;2.53;0.63;;;24.50;48.70;23.60;101608.00;;;;5020695;28;20072;-65
2022/07/14 08:10:27;;;;;;;2.78;0.80;;;24.50;48.70;23.60;101612.00;;;;5022961;28;20460;-65
2022/07/14 08:13:13;;;;;;;4.53;0.85;;;24.50;48.60;23.60;101605.00;;;;5019029;28;20516;-65
2022/07/14 08:15:59;;;;;;;4.15;0.90;;;24.50;48.60;23.60;101605.00;;;;5017669;28;20041;-65
2022/07/14 08:18:46;;;;;;;5.03;1.02;;;24.50;48.50;23.60;101605.00;;;;5024549;28;20379;-65
2022/07/14 08:21:32;;;;;;;5.90;0.70;;;24.60;48.60;23.60;101607.00;;;;5017277;28;20057;-65
2022/07/14 08:24:18;;;;;;;6.43;0.98;;;24.60;48.50;23.60;101602.00;;;;5018306;28;20041;-65
2022/07/14 08:27:05;;;;;;;3.15;0.80;;;24.50;48.50;23.60;101600.00;;;;5014104;28;20053;-65
2022/07/14 08:29:51;;;;;;;3.88;0.95;;;24.60;48.50;23.60;101596.00;;;;5023547;28;20061;-65
2022/07/14 08:32:40;;;;;;;2.13;0.75;;;24.60;48.40;23.60;101591.00;;;;5021184;28;20345;-65
2022/07/14 08:35:26;;;;;;;2.90;1.00;;;24.60;48.40;23.60;101592.00;;;;5019189;28;20159;-65
2022/07/14 08:38:12;;;;;;;5.18;1.08;;;24.60;48.30;23.60;101598.00;;;;5023069;28;20037;-65
2022/07/14 08:40:58;;;;;;;2.33;0.88;;;24.60;48.30;23.60;101600.00;;;;5018813;28;20098;-65
2022/07/14 08:43:45;;;;;;;3.05;0.82;;;24.60;48.30;23.60;101597.00;;;;5021582;28;20049;-65
2022/07/14 08:46:31;;;;;;;4.00;1.00;;;24.60;48.30;23.60;101590.00;;;;5021054;28;20037;-65
2022/07/14 08:49:18;;;;;;;2.67;0.98;;;24.60;48.30;23.60;101592.00;;;;5027653;28;20049;-65
2022/07/14 08:52:04;;;;;;;2.45;0.85;;;24.60;48.30;23.60;101594.00;;;;5005305;28;20042;-65
2022/07/14 08:54:51;;;;;;;3.67;0.93;;;24.60;48.30;23.60;101584.00;;;;5025600;28;20310;-65
2022/07/14 08:57:37;;;;;;;2.83;0.75;;;24.60;48.20;23.60;101580.00;;;;5012188;28;20037;-65
2022/07/14 09:00:23;;;;;;;2.33;0.80;;;24.60;48.40;23.60;101577.00;;;;5022300;28;20115;-65
2022/07/14 09:03:09;;;;;;;5.40;0.98;;;24.60;48.30;23.60;101583.00;;;;5027853;28;20438;-65
2022/07/14 09:05:56;;;;;;;1.85;0.68;;;24.60;48.30;23.60;101581.00;;;;5023835;28;20053;-65
2022/07/14 09:08:54;;;;;;;2.80;1.02;;;24.60;48.30;23.60;101580.00;;;;5024658;28;20103;-65
2022/07/14 09:12:08;;;;;;;3.65;0.80;;;24.60;48.20;23.60;101588.00;;;;5020881;28;20233;-65
2022/07/14 09:18:02;;;;;;;3.75;1.00;;;24.60;48.00;23.60;101584.00;;;;5021360;28;20091;-65
2022/07/14 09:20:48;;;;;;;1.83;0.57;;;24.60;48.10;23.60;101588.00;;;;5048254;28;20494;-66
2022/07/14 09:23:37;;;;;;;4.38;1.00;;;24.60;48.10;23.60;101584.00;;;;5023857;28;20037;-66
2022/07/14 09:26:24;;;;;;;3.95;0.88;;;24.60;48.00;23.60;101579.00;;;;5020274;28;20049;-66
2022/07/14 09:29:19;;;;;;;3.58;0.95;;;24.60;48.20;23.60;101575.00;;;;5027589;28;20127;-66
2022/07/14 09:32:05;;;;;;;2.58;0.85;;;24.60;48.00;23.60;101577.00;;;;5023653;28;20414;-65
2022/07/14 09:34:59;;;;;;;3.70;1.05;;;24.60;48.20;23.60;101573.00;;;;5029573;28;20049;-66
2022/07/14 09:37:46;;;;;;;3.00;0.80;;;24.60;48.30;23.60;101569.00;;;;5024873;28;20072;-66
2022/07/14 09:40:32;;;;;;;2.33;1.20;;;24.70;48.30;23.60;101558.00;;;;5022014;28;20411;-67
2022/07/14 09:43:19;;;;;;;2.10;0.73;;;24.60;47.80;23.60;101556.00;;;;5037097;28;20041;-66
2022/07/14 09:46:05;;;;;;;1.92;0.70;;;24.60;47.90;23.60;101561.00;;;;5021361;28;20048;-72
2022/07/14 09:49:07;;;;;;;3.40;1.20;;;24.60;48.00;23.60;101557.00;;;;5023089;28;20057;-65
2022/07/14 09:52:01;;;;;;;2.88;0.93;;;24.60;48.00;23.60;101552.00;;;;5020850;28;20049;-66
2022/07/14 09:54:51;;;;;;;3.28;0.80;;;24.60;48.10;23.60;101558.00;;;;5022609;28;20037;-65
2022/07/14 09:57:38;;;;;;;2.75;0.90;;;24.60;48.10;23.60;101562.00;;;;5022844;28;20042;-66
2022/07/14 10:00:24;;;;;;;;;;;24.70;48.10;23.60;101539.00;;;;5024343;28;20462;-66
2022/07/14 10:03:10;;;;;;;3.50;0.55;;;24.60;48.30;23.60;101542.00;;;;5022761;28;19920;-66
2022/07/14 10:05:57;;;;;;;4.93;1.13;;;24.70;48.00;23.60;101544.00;;;;5014139;28;20468;-66
2022/07/14 10:08:46;;;;;;;3.55;1.02;;;24.70;48.00;23.60;101537.00;;;;5009218;28;20042;-65
2022/07/14 10:11:32;;;;;;;2.88;1.00;;;24.60;48.00;23.60;101538.00;;;;5018237;28;20054;-66
2022/07/14 10:14:18;;;;;;;2.10;0.70;;;24.70;48.00;23.60;101540.00;;;;5020317;28;20095;-66
2022/07/14 10:17:05;;;;;;;3.40;0.95;;;24.60;47.50;23.60;101540.00;;;;5022396;28;20061;-66
2022/07/14 10:19:51;;;;;;;3.92;0.95;;;24.60;47.90;23.60;101538.00;;;;5011242;28;20286;-66
2022/07/14 10:22:37;;;;;;;3.10;0.80;;;24.70;47.50;23.60;101537.00;;;;5018327;28;20458;-65
2022/07/14 10:25:23;;;;;;;2.97;0.80;;;24.70;47.60;23.60;101534.00;;;;5024604;28;20487;-65
2022/07/14 10:28:09;;;;;;;2.58;1.08;;;24.70;47.40;23.60;101533.00;;;;5025312;28;20057;-66
2022/07/14 10:31:26;;;;;;;4.57;0.90;;;24.60;47.50;23.60;101537.00;;;;5028621;28;20049;-66
2022/07/14 10:34:33;;;;;;;2.17;0.90;;;24.60;46.80;23.60;101549.00;;;;5041463;28;20048;-66
2022/07/14 10:37:22;;;;;;;3.75;1.20;;;24.70;47.20;23.60;101542.00;;;;5018420;28;20033;-66
2022/07/14 10:40:41;;;;;;;6.70;1.23;;;24.70;47.40;23.60;101533.00;;;;5024304;28;20037;-66
2022/07/14 10:43:40;;;;;;;6.32;1.35;;;24.70;47.00;23.60;101540.00;;;;5025282;28;20048;-66
2022/07/14 10:46:40;;;;;;;1.73;0.80;;;24.70;47.50;23.60;101547.00;;;;5030397;28;20068;-66
2022/07/14 10:49:26;;;;;;;2.13;0.68;;;24.70;47.70;23.60;101546.00;;;;5020823;28;20485;-66
2022/07/14 10:52:25;;;;;;;3.35;1.33;;;24.70;47.40;23.60;101550.00;;;;5025157;28;20060;-66
2022/07/14 10:55:19;;;;;;;2.70;0.80;;;24.80;47.80;23.60;101546.00;;;;5020033;28;20398;-66
2022/07/14 10:58:06;;;;;;;3.13;0.70;;;24.70;47.80;23.60;101544.00;;;;5020933;28;20103;-66
2022/07/14 11:00:57;;;;;;;3.33;0.83;;;24.80;47.80;23.60;101545.00;;;;5017721;28;20033;-66
2022/07/14 11:03:45;;;;;;;2.40;0.85;;;24.70;47.40;23.60;101544.00;;;;5022868;28;20116;-66
2022/07/14 11:06:31;;;;;;;1.67;0.70;;;24.70;47.10;23.60;101538.00;;;;5022503;28;20049;-66
2022/07/14 11:09:22;;;;;;;2.50;0.60;;;24.80;47.30;23.60;101541.00;;;;5023570;28;20053;-66
2022/07/14 11:12:14;;;;;;;1.08;0.70;;;24.80;47.80;23.60;101540.00;;;;5024026;28;20044;-66
2022/07/14 11:15:00;;;;;;;1.85;0.75;;;24.80;46.50;23.60;101536.00;;;;5028457;28;20513;-66
2022/07/14 11:17:46;;;;;;;4.00;0.65;;;24.80;47.20;23.70;101535.00;;;;5024224;28;20056;-66
2022/07/14 11:21:01;;;;;;;2.97;0.70;;;24.70;46.90;23.60;101521.00;;;;5024927;28;20141;-66
2022/07/14 11:23:50;;;;;;;1.95;0.75;;;24.80;46.80;23.60;101532.00;;;;5047325;28;20045;-66
2022/07/14 11:26:47;;;;;;;1.52;0.52;;;24.80;47.20;23.60;101531.00;;;;5018216;28;20041;-66
2022/07/14 11:29:34;;;;;;;2.65;0.90;;;24.80;47.50;23.60;101526.00;;;;5024549;28;20055;-66
2022/07/14 11:32:34;;;;;;;2.05;0.85;;;24.80;47.50;23.70;101532.00;;;;5033723;28;20080;-66
2022/07/14 11:38:27;;;;;;;1.75;0.70;;;24.80;47.70;23.70;101529.00;;;;5017614;28;20424;-66
2022/07/14 11:41:13;;;;;;;1.20;0.70;;;24.80;47.30;23.70;101535.00;;;;5022839;28;20037;-66
2022/07/14 11:43:59;;;;;;;3.75;0.70;;;24.80;47.40;23.70;101534.00;;;;5029695;28;20100;-66
2022/07/14 11:46:58;;;;;;;2.05;0.70;;;24.90;47.50;23.70;101532.00;;;;5020503;28;20125;-66
2022/07/14 11:50:02;;;;;;;1.40;0.65;;;24.90;47.60;23.70;101524.00;;;;5022229;28;20048;-66
2022/07/14 11:52:48;;;;;;;1.77;0.50;;;24.80;47.40;23.70;101528.00;;;;5023558;28;20125;-66
2022/07/14 11:55:37;;;;;;;1.67;0.70;;;24.80;47.40;23.70;101536.00;;;;5006091;28;20057;-66
2022/07/14 11:58:23;;;;;;;3.70;0.60;;;24.80;47.40;23.70;101535.00;;;;5028277;28;20099;-66
2022/07/14 12:01:09;;;;;;;3.78;0.50;;;24.90;47.20;23.70;101531.00;;;;5024123;28;20045;-66
2022/07/14 12:04:05;;;;;;;0.93;0.50;;;24.80;47.20;23.70;101515.00;;;;5025091;28;20049;-66
2022/07/14 12:06:52;;;;;;;2.42;0.68;;;24.80;47.20;23.70;101527.00;;;;5019334;28;20604;-66
2022/07/14 12:09:38;;;;;;;4.10;0.75;;;24.90;47.20;23.70;101522.00;;;;5022958;28;20454;-66
2022/07/14 12:12:25;;;;;;;1.10;0.65;;;24.90;47.20;23.70;101520.00;;;;5043797;28;20045;-66
2022/07/14 12:15:20;;;;;;;2.35;0.73;;;24.80;47.10;23.70;101524.00;;;;5020307;28;20049;-66
2022/07/14 12:18:06;;;;;;;1.08;0.50;;;24.90;47.10;23.70;101528.00;;;;5022141;28;20065;-65
2022/07/14 12:20:53;;;;;;;2.83;0.70;;;24.90;47.00;23.70;101532.00;;;;5019493;28;20053;-66
2022/07/14 12:23:53;;;;;;;4.68;0.70;;;24.90;47.10;23.70;101535.00;;;;5023079;28;20392;-66
2022/07/14 12:26:39;;;;;;;1.00;0.52;;;24.90;46.80;23.70;101535.00;;;;5009230;28;20049;-65
2022/07/14 12:29:26;;;;;;;0.95;0.50;;;24.90;46.90;23.70;101535.00;;;;5029351;28;20041;-66